sensor_id;sensor_type;location;lat;lon;timestamp;pressure;altitude;pressure_sealevel;temperature;humidity
50349;BME280;36250;48.740;22.174;2023-11-22T00:01:49;100267.34;;;8.39;80.91
50349;BME280;36250;48.740;22.174;2023-11-22T00:04:14;100269.34;;;8.44;80.59
50349;BME280;36250;48.740;22.174;2023-11-22T00:06:39;100265.13;;;8.48;80.95
50349;BME280;36250;48.740;22.174;2023-11-22T00:09:04;100266.28;;;8.52;80.61
50349;BME280;36250;48.740;22.174;2023-11-22T00:11:30;100278.31;;;8.56;80.27
50349;BME280;36250;48.740;22.174;2023-11-22T00:13:55;100282.22;;;8.60;80.45
50349;BME280;36250;48.740;22.174;2023-11-22T00:16:21;100298.84;;;8.64;80.09
50349;BME280;36250;48.740;22.174;2023-11-22T00:18:46;100299.78;;;8.69;80.27
50349;BME280;36250;48.740;22.174;2023-11-22T00:21:12;100309.72;;;8.75;80.07
50349;BME280;36250;48.740;22.174;2023-11-22T00:23:37;100314.31;;;8.75;80.12
50349;BME280;36250;48.740;22.174;2023-11-22T00:26:03;100317.25;;;8.73;80.10
50349;BME280;36250;48.740;22.174;2023-11-22T00:28:28;100321.50;;;8.81;79.92
50349;BME280;36250;48.740;22.174;2023-11-22T00:30:54;100320.22;;;8.83;79.47
50349;BME280;36250;48.740;22.174;2023-11-22T00:33:19;100317.03;;;8.86;79.49
50349;BME280;36250;48.740;22.174;2023-11-22T00:35:45;100310.75;;;8.86;79.37
50349;BME280;36250;48.740;22.174;2023-11-22T00:38:10;100305.91;;;8.88;79.43
50349;BME280;36250;48.740;22.174;2023-11-22T00:40:36;100308.06;;;8.86;79.42
50349;BME280;36250;48.740;22.174;2023-11-22T00:43:01;100306.53;;;8.90;78.99
50349;BME280;36250;48.740;22.174;2023-11-22T00:45:27;100301.91;;;8.90;78.82
50349;BME280;36250;48.740;22.174;2023-11-22T00:47:52;100308.53;;;8.83;79.19
50349;BME280;36250;48.740;22.174;2023-11-22T00:50:18;100319.63;;;8.81;79.05
50349;BME280;36250;48.740;22.174;2023-11-22T00:52:46;100321.13;;;8.66;79.30
50349;BME280;36250;48.740;22.174;2023-11-22T00:55:12;100315.72;;;8.66;79.73
50349;BME280;36250;48.740;22.174;2023-11-22T00:57:37;100313.38;;;8.69;79.45
50349;BME280;36250;48.740;22.174;2023-11-22T01:00:04;100314.53;;;8.73;79.09
50349;BME280;36250;48.740;22.174;2023-11-22T01:02:30;100307.34;;;8.67;79.07
50349;BME280;36250;48.740;22.174;2023-11-22T01:04:55;100324.94;;;8.76;78.65
50349;BME280;36250;48.740;22.174;2023-11-22T01:07:21;100323.25;;;8.64;79.22
50349;BME280;36250;48.740;22.174;2023-11-22T01:09:46;100331.06;;;8.48;79.72
50349;BME280;36250;48.740;22.174;2023-11-22T01:12:11;100337.28;;;8.49;79.73
50349;BME280;36250;48.740;22.174;2023-11-22T01:14:38;100330.41;;;8.35;80.16
50349;BME280;36250;48.740;22.174;2023-11-22T01:17:04;100326.56;;;8.24;80.47
50349;BME280;36250;48.740;22.174;2023-11-22T01:19:30;100321.94;;;8.43;80.25
50349;BME280;36250;48.740;22.174;2023-11-22T01:21:55;100316.78;;;8.53;79.73
50349;BME280;36250;48.740;22.174;2023-11-22T01:24:20;100325.03;;;8.58;79.26
50349;BME280;36250;48.740;22.174;2023-11-22T01:26:46;100321.50;;;8.46;79.01
50349;BME280;36250;48.740;22.174;2023-11-22T01:29:11;100319.00;;;8.44;78.81
50349;BME280;36250;48.740;22.174;2023-11-22T01:31:37;100318.53;;;8.47;79.41
50349;BME280;36250;48.740;22.174;2023-11-22T01:34:03;100319.13;;;8.61;78.94
50349;BME280;36250;48.740;22.174;2023-11-22T01:36:29;100310.53;;;8.52;78.57
50349;BME280;36250;48.740;22.174;2023-11-22T01:38:55;100304.84;;;8.54;78.67
50349;BME280;36250;48.740;22.174;2023-11-22T01:41:21;100305.47;;;8.68;78.73
50349;BME280;36250;48.740;22.174;2023-11-22T01:43:46;100301.34;;;8.77;77.83
50349;BME280;36250;48.740;22.174;2023-11-22T01:46:32;100300.88;;;8.80;77.94
50349;BME280;36250;48.740;22.174;2023-11-22T01:48:59;100306.06;;;8.81;78.14
50349;BME280;36250;48.740;22.174;2023-11-22T01:51:25;100315.50;;;8.79;77.38
50349;BME280;36250;48.740;22.174;2023-11-22T01:53:52;100322.47;;;8.63;77.68
50349;BME280;36250;48.740;22.174;2023-11-22T01:56:22;100318.31;;;8.61;78.11
50349;BME280;36250;48.740;22.174;2023-11-22T01:58:49;100310.78;;;8.63;77.88
50349;BME280;36250;48.740;22.174;2023-11-22T02:01:15;100315.72;;;8.66;77.79
50349;BME280;36250;48.740;22.174;2023-11-22T02:03:41;100320.78;;;8.62;76.89
50349;BME280;36250;48.740;22.174;2023-11-22T02:06:07;100326.22;;;8.50;77.73
50349;BME280;36250;48.740;22.174;2023-11-22T02:08:34;100318.66;;;8.41;78.42
50349;BME280;36250;48.740;22.174;2023-11-22T02:11:01;100325.13;;;8.40;78.22
50349;BME280;36250;48.740;22.174;2023-11-22T02:13:32;100319.69;;;8.28;78.24
50349;BME280;36250;48.740;22.174;2023-11-22T02:15:58;100324.16;;;8.34;77.86
50349;BME280;36250;48.740;22.174;2023-11-22T02:18:27;100317.81;;;8.29;77.99
50349;BME280;36250;48.740;22.174;2023-11-22T02:20:53;100326.34;;;8.14;77.80
50349;BME280;36250;48.740;22.174;2023-11-22T02:23:18;100320.03;;;8.02;78.27
50349;BME280;36250;48.740;22.174;2023-11-22T02:25:44;100318.66;;;7.81;78.81
50349;BME280;36250;48.740;22.174;2023-11-22T02:28:11;100319.50;;;7.82;79.02
50349;BME280;36250;48.740;22.174;2023-11-22T02:30:37;100312.06;;;7.77;78.96
50349;BME280;36250;48.740;22.174;2023-11-22T02:33:03;100327.38;;;7.83;78.94
50349;BME280;36250;48.740;22.174;2023-11-22T02:35:30;100322.81;;;7.84;78.59
50349;BME280;36250;48.740;22.174;2023-11-22T02:37:57;100321.72;;;7.85;78.29
50349;BME280;36250;48.740;22.174;2023-11-22T02:40:22;100322.81;;;7.84;78.31
50349;BME280;36250;48.740;22.174;2023-11-22T02:42:52;100330.34;;;7.82;78.34
50349;BME280;36250;48.740;22.174;2023-11-22T02:45:19;100334.09;;;7.81;78.34
50349;BME280;36250;48.740;22.174;2023-11-22T02:47:45;100339.06;;;7.84;78.16
50349;BME280;36250;48.740;22.174;2023-11-22T02:50:12;100343.41;;;7.85;78.48
50349;BME280;36250;48.740;22.174;2023-11-22T02:52:38;100345.53;;;7.83;78.25
50349;BME280;36250;48.740;22.174;2023-11-22T02:55:04;100344.56;;;7.77;78.53
50349;BME280;36250;48.740;22.174;2023-11-22T02:57:30;100348.09;;;7.78;78.72
50349;BME280;36250;48.740;22.174;2023-11-22T02:59:56;100354.19;;;7.73;79.02
50349;BME280;36250;48.740;22.174;2023-11-22T03:02:22;100352.19;;;7.69;78.39
50349;BME280;36250;48.740;22.174;2023-11-22T03:04:47;100364.59;;;7.58;79.17
50349;BME280;36250;48.740;22.174;2023-11-22T03:07:13;100359.84;;;7.54;79.35
50349;BME280;36250;48.740;22.174;2023-11-22T03:09:38;100364.84;;;7.57;79.33
50349;BME280;36250;48.740;22.174;2023-11-22T03:12:05;100375.97;;;7.49;79.45
50349;BME280;36250;48.740;22.174;2023-11-22T03:14:31;100373.25;;;7.49;79.82
50349;BME280;36250;48.740;22.174;2023-11-22T03:16:56;100381.09;;;7.57;79.71
50349;BME280;36250;48.740;22.174;2023-11-22T03:19:22;100382.13;;;7.56;79.09
50349;BME280;36250;48.740;22.174;2023-11-22T03:21:49;100393.44;;;7.53;79.37
50349;BME280;36250;48.740;22.174;2023-11-22T03:24:15;100394.88;;;7.55;79.10
50349;BME280;36250;48.740;22.174;2023-11-22T03:26:41;100400.28;;;7.55;79.17
50349;BME280;36250;48.740;22.174;2023-11-22T03:29:06;100408.56;;;7.60;78.89
50349;BME280;36250;48.740;22.174;2023-11-22T03:31:32;100412.22;;;7.66;78.10
50349;BME280;36250;48.740;22.174;2023-11-22T03:33:57;100416.84;;;7.65;78.56
50349;BME280;36250;48.740;22.174;2023-11-22T03:36:23;100421.19;;;7.66;78.67
50349;BME280;36250;48.740;22.174;2023-11-22T03:38:49;100425.19;;;7.64;78.64
50349;BME280;36250;48.740;22.174;2023-11-22T03:41:15;100439.31;;;7.66;78.33
50349;BME280;36250;48.740;22.174;2023-11-22T03:43:42;100443.09;;;7.65;78.49
50349;BME280;36250;48.740;22.174;2023-11-22T03:46:08;100446.25;;;7.62;78.51
50349;BME280;36250;48.740;22.174;2023-11-22T03:48:33;100455.72;;;7.53;78.65
50349;BME280;36250;48.740;22.174;2023-11-22T03:50:58;100447.50;;;7.41;79.00
50349;BME280;36250;48.740;22.174;2023-11-22T03:53:23;100456.28;;;7.37;79.45
50349;BME280;36250;48.740;22.174;2023-11-22T03:55:49;100452.63;;;7.31;80.14
50349;BME280;36250;48.740;22.174;2023-11-22T03:58:15;100445.28;;;7.32;79.87
50349;BME280;36250;48.740;22.174;2023-11-22T04:00:40;100445.13;;;7.26;80.25
50349;BME280;36250;48.740;22.174;2023-11-22T04:03:06;100454.41;;;7.37;79.17
50349;BME280;36250;48.740;22.174;2023-11-22T04:05:32;100454.66;;;7.36;79.19
50349;BME280;36250;48.740;22.174;2023-11-22T04:07:57;100468.47;;;7.27;79.42
50349;BME280;36250;48.740;22.174;2023-11-22T04:10:23;100472.22;;;7.26;79.03
50349;BME280;36250;48.740;22.174;2023-11-22T04:12:49;100474.59;;;7.16;79.41
50349;BME280;36250;48.740;22.174;2023-11-22T04:15:14;100475.66;;;7.15;79.17
50349;BME280;36250;48.740;22.174;2023-11-22T04:17:40;100484.22;;;7.12;78.68
50349;BME280;36250;48.740;22.174;2023-11-22T04:20:07;100489.88;;;7.04;78.01
50349;BME280;36250;48.740;22.174;2023-11-22T04:22:38;100495.75;;;7.01;77.65
50349;BME280;36250;48.740;22.174;2023-11-22T04:25:03;100493.25;;;7.00;77.20
50349;BME280;36250;48.740;22.174;2023-11-22T04:27:29;100508.84;;;7.04;76.79
50349;BME280;36250;48.740;22.174;2023-11-22T04:29:55;100505.25;;;7.10;76.10
50349;BME280;36250;48.740;22.174;2023-11-22T04:32:20;100515.19;;;7.16;75.32
50349;BME280;36250;48.740;22.174;2023-11-22T04:34:47;100533.50;;;7.21;74.80
50349;BME280;36250;48.740;22.174;2023-11-22T04:37:12;100541.78;;;7.26;74.45
50349;BME280;36250;48.740;22.174;2023-11-22T04:39:38;100539.19;;;7.38;73.87
50349;BME280;36250;48.740;22.174;2023-11-22T04:42:03;100544.38;;;7.39;73.33
50349;BME280;36250;48.740;22.174;2023-11-22T04:44:29;100547.50;;;7.43;72.74
50349;BME280;36250;48.740;22.174;2023-11-22T04:46:54;100551.56;;;7.52;72.44
50349;BME280;36250;48.740;22.174;2023-11-22T04:49:19;100556.47;;;7.37;72.81
50349;BME280;36250;48.740;22.174;2023-11-22T04:51:45;100565.28;;;7.32;73.12
50349;BME280;36250;48.740;22.174;2023-11-22T04:54:11;100562.63;;;7.25;72.99
50349;BME280;36250;48.740;22.174;2023-11-22T04:56:36;100561.75;;;7.00;73.53
50349;BME280;36250;48.740;22.174;2023-11-22T04:59:02;100563.59;;;7.06;72.75
50349;BME280;36250;48.740;22.174;2023-11-22T05:01:32;100572.56;;;7.00;73.30
50349;BME280;36250;48.740;22.174;2023-11-22T05:03:58;100570.75;;;6.94;73.00
50349;BME280;36250;48.740;22.174;2023-11-22T05:06:24;100572.81;;;6.92;73.37
50349;BME280;36250;48.740;22.174;2023-11-22T05:08:50;100582.84;;;6.85;73.05
50349;BME280;36250;48.740;22.174;2023-11-22T05:11:15;100570.75;;;6.94;72.61
50349;BME280;36250;48.740;22.174;2023-11-22T05:13:43;100574.19;;;6.77;72.55
50349;BME280;36250;48.740;22.174;2023-11-22T05:16:09;100581.28;;;6.71;72.84
50349;BME280;36250;48.740;22.174;2023-11-22T05:18:34;100590.00;;;6.73;72.87
50349;BME280;36250;48.740;22.174;2023-11-22T05:21:01;100591.50;;;6.69;72.36
50349;BME280;36250;48.740;22.174;2023-11-22T05:23:28;100585.09;;;6.57;72.48
50349;BME280;36250;48.740;22.174;2023-11-22T05:25:53;100591.25;;;6.71;72.44
50349;BME280;36250;48.740;22.174;2023-11-22T05:28:19;100590.94;;;6.54;72.50
50349;BME280;36250;48.740;22.174;2023-11-22T05:30:44;100609.25;;;6.52;72.37
50349;BME280;36250;48.740;22.174;2023-11-22T05:33:10;100612.78;;;6.52;71.96
50349;BME280;36250;48.740;22.174;2023-11-22T05:35:35;100621.47;;;6.61;72.05
50349;BME280;36250;48.740;22.174;2023-11-22T05:38:00;100632.91;;;6.63;72.32
50349;BME280;36250;48.740;22.174;2023-11-22T05:40:27;100626.28;;;6.59;72.20
50349;BME280;36250;48.740;22.174;2023-11-22T05:42:52;100632.09;;;6.56;71.86
50349;BME280;36250;48.740;22.174;2023-11-22T05:45:17;100637.19;;;6.33;72.01
50349;BME280;36250;48.740;22.174;2023-11-22T05:47:43;100642.25;;;5.97;72.51
50349;BME280;36250;48.740;22.174;2023-11-22T05:50:08;100649.31;;;5.91;72.63
50349;BME280;36250;48.740;22.174;2023-11-22T05:52:34;100658.44;;;5.77;72.58
50349;BME280;36250;48.740;22.174;2023-11-22T05:55:00;100664.69;;;5.90;72.20
50349;BME280;36250;48.740;22.174;2023-11-22T05:57:29;100669.41;;;5.75;72.52
50349;BME280;36250;48.740;22.174;2023-11-22T05:59:55;100676.28;;;5.71;72.31
50349;BME280;36250;48.740;22.174;2023-11-22T06:02:20;100686.69;;;5.74;71.88
50349;BME280;36250;48.740;22.174;2023-11-22T06:04:46;100691.25;;;5.80;71.43
50349;BME280;36250;48.740;22.174;2023-11-22T06:07:11;100694.38;;;5.84;69.92
50349;BME280;36250;48.740;22.174;2023-11-22T06:09:37;100692.13;;;6.01;69.50
50349;BME280;36250;48.740;22.174;2023-11-22T06:12:02;100695.44;;;6.16;68.82
50349;BME280;36250;48.740;22.174;2023-11-22T06:14:27;100702.47;;;6.17;69.08
50349;BME280;36250;48.740;22.174;2023-11-22T06:16:53;100696.66;;;6.07;68.25
50349;BME280;36250;48.740;22.174;2023-11-22T06:19:18;100717.06;;;6.16;68.30
50349;BME280;36250;48.740;22.174;2023-11-22T06:21:43;100711.22;;;6.06;68.21
50349;BME280;36250;48.740;22.174;2023-11-22T06:24:09;100717.25;;;6.08;67.80
50349;BME280;36250;48.740;22.174;2023-11-22T06:26:36;100721.59;;;6.22;67.40
50349;BME280;36250;48.740;22.174;2023-11-22T06:29:05;100725.16;;;6.03;68.19
50349;BME280;36250;48.740;22.174;2023-11-22T06:31:30;100736.38;;;6.00;67.81
50349;BME280;36250;48.740;22.174;2023-11-22T06:33:55;100742.41;;;6.08;68.49
50349;BME280;36250;48.740;22.174;2023-11-22T06:36:21;100737.44;;;5.99;68.39
50349;BME280;36250;48.740;22.174;2023-11-22T06:38:46;100746.91;;;5.68;69.15
50349;BME280;36250;48.740;22.174;2023-11-22T06:41:11;100752.28;;;5.55;69.59
50349;BME280;36250;48.740;22.174;2023-11-22T06:43:37;100756.25;;;5.72;67.75
50349;BME280;36250;48.740;22.174;2023-11-22T06:46:02;100761.88;;;5.77;68.37
50349;BME280;36250;48.740;22.174;2023-11-22T06:48:31;100760.88;;;5.85;67.53
50349;BME280;36250;48.740;22.174;2023-11-22T06:50:57;100761.53;;;6.00;66.78
50349;BME280;36250;48.740;22.174;2023-11-22T06:53:22;100765.25;;;5.86;66.79
50349;BME280;36250;48.740;22.174;2023-11-22T06:55:48;100774.97;;;5.80;67.29
50349;BME280;36250;48.740;22.174;2023-11-22T06:58:13;100770.66;;;5.86;66.73
50349;BME280;36250;48.740;22.174;2023-11-22T07:00:38;100781.81;;;5.70;67.62
50349;BME280;36250;48.740;22.174;2023-11-22T07:03:05;100785.63;;;5.88;66.89
50349;BME280;36250;48.740;22.174;2023-11-22T07:05:31;100793.47;;;5.77;67.37
50349;BME280;36250;48.740;22.174;2023-11-22T07:07:56;100778.50;;;5.74;67.52
50349;BME280;36250;48.740;22.174;2023-11-22T07:10:22;100796.16;;;5.70;67.39
50349;BME280;36250;48.740;22.174;2023-11-22T07:12:47;100795.19;;;5.91;66.94
50349;BME280;36250;48.740;22.174;2023-11-22T07:15:13;100790.63;;;5.91;66.84
50349;BME280;36250;48.740;22.174;2023-11-22T07:17:39;100800.13;;;5.81;66.78
50349;BME280;36250;48.740;22.174;2023-11-22T07:20:05;100785.78;;;5.74;65.00
50349;BME280;36250;48.740;22.174;2023-11-22T07:22:34;100790.22;;;6.08;65.04
50349;BME280;36250;48.740;22.174;2023-11-22T07:25:00;100792.50;;;6.24;64.65
50349;BME280;36250;48.740;22.174;2023-11-22T07:27:27;100800.19;;;6.01;64.57
50349;BME280;36250;48.740;22.174;2023-11-22T07:29:53;100798.94;;;6.36;63.69
50349;BME280;36250;48.740;22.174;2023-11-22T07:32:19;100791.50;;;6.38;64.82
50349;BME280;36250;48.740;22.174;2023-11-22T07:34:46;100803.13;;;6.45;64.19
50349;BME280;36250;48.740;22.174;2023-11-22T07:37:12;100797.28;;;6.61;65.02
50349;BME280;36250;48.740;22.174;2023-11-22T07:39:38;100807.47;;;6.46;65.00
50349;BME280;36250;48.740;22.174;2023-11-22T07:42:05;100808.50;;;6.71;64.65
50349;BME280;36250;48.740;22.174;2023-11-22T07:44:33;100805.63;;;6.59;63.96
50349;BME280;36250;48.740;22.174;2023-11-22T07:47:00;100804.38;;;6.62;62.34
50349;BME280;36250;48.740;22.174;2023-11-22T07:49:26;100811.22;;;6.65;62.25
50349;BME280;36250;48.740;22.174;2023-11-22T07:51:51;100816.59;;;6.91;62.59
50349;BME280;36250;48.740;22.174;2023-11-22T07:54:18;100813.38;;;7.20;63.12
50349;BME280;36250;48.740;22.174;2023-11-22T07:56:47;100801.16;;;7.11;61.30
50349;BME280;36250;48.740;22.174;2023-11-22T07:59:13;100806.34;;;6.99;60.58
50349;BME280;36250;48.740;22.174;2023-11-22T08:01:38;100804.94;;;6.84;60.78
50349;BME280;36250;48.740;22.174;2023-11-22T08:04:04;100812.47;;;6.82;60.73
50349;BME280;36250;48.740;22.174;2023-11-22T08:06:31;100817.22;;;6.93;60.41
50349;BME280;36250;48.740;22.174;2023-11-22T08:08:57;100819.66;;;7.14;60.59
50349;BME280;36250;48.740;22.174;2023-11-22T08:11:26;100825.06;;;7.20;59.35
50349;BME280;36250;48.740;22.174;2023-11-22T08:13:52;100831.31;;;7.21;60.06
50349;BME280;36250;48.740;22.174;2023-11-22T08:16:20;100823.81;;;7.23;59.22
50349;BME280;36250;48.740;22.174;2023-11-22T08:18:45;100834.72;;;6.84;60.01
50349;BME280;36250;48.740;22.174;2023-11-22T08:21:10;100837.97;;;7.12;60.13
50349;BME280;36250;48.740;22.174;2023-11-22T08:23:37;100848.41;;;7.08;58.83
50349;BME280;36250;48.740;22.174;2023-11-22T08:26:02;100838.78;;;7.19;58.88
50349;BME280;36250;48.740;22.174;2023-11-22T08:28:29;100840.50;;;7.13;58.67
50349;BME280;36250;48.740;22.174;2023-11-22T08:30:54;100826.81;;;6.82;59.27
50349;BME280;36250;48.740;22.174;2023-11-22T08:33:19;100839.06;;;6.91;59.13
50349;BME280;36250;48.740;22.174;2023-11-22T08:35:45;100848.41;;;7.02;59.61
50349;BME280;36250;48.740;22.174;2023-11-22T08:38:16;100851.72;;;7.10;59.35
50349;BME280;36250;48.740;22.174;2023-11-22T08:40:42;100850.00;;;7.29;59.06
50349;BME280;36250;48.740;22.174;2023-11-22T08:43:07;100855.66;;;7.14;59.00
50349;BME280;36250;48.740;22.174;2023-11-22T08:45:32;100864.25;;;7.11;58.71
50349;BME280;36250;48.740;22.174;2023-11-22T08:47:58;100864.84;;;7.07;59.12
50349;BME280;36250;48.740;22.174;2023-11-22T08:50:24;100858.63;;;7.06;58.46
50349;BME280;36250;48.740;22.174;2023-11-22T08:52:49;100852.59;;;6.85;58.11
50349;BME280;36250;48.740;22.174;2023-11-22T08:55:18;100863.38;;;7.17;58.35
50349;BME280;36250;48.740;22.174;2023-11-22T08:57:47;100855.41;;;7.29;58.50
50349;BME280;36250;48.740;22.174;2023-11-22T09:00:13;100861.34;;;6.93;58.15
50349;BME280;36250;48.740;22.174;2023-11-22T09:02:40;100856.72;;;7.13;57.96
50349;BME280;36250;48.740;22.174;2023-11-22T09:05:06;100885.47;;;6.95;57.99
50349;BME280;36250;48.740;22.174;2023-11-22T09:07:33;100868.81;;;7.11;58.44
50349;BME280;36250;48.740;22.174;2023-11-22T09:10:01;100872.34;;;7.11;57.78
50349;BME280;36250;48.740;22.174;2023-11-22T09:12:34;100863.47;;;7.49;56.95
50349;BME280;36250;48.740;22.174;2023-11-22T09:15:00;100870.34;;;7.51;57.35
50349;BME280;36250;48.740;22.174;2023-11-22T09:17:25;100880.81;;;7.48;57.37
50349;BME280;36250;48.740;22.174;2023-11-22T09:19:50;100881.78;;;7.53;57.49
50349;BME280;36250;48.740;22.174;2023-11-22T09:22:16;100889.94;;;7.53;57.87
50349;BME280;36250;48.740;22.174;2023-11-22T09:24:43;100887.53;;;7.12;57.30
50349;BME280;36250;48.740;22.174;2023-11-22T09:27:10;100899.81;;;7.28;56.80
50349;BME280;36250;48.740;22.174;2023-11-22T09:29:40;100897.28;;;7.40;56.62
50349;BME280;36250;48.740;22.174;2023-11-22T09:32:05;100903.50;;;7.47;57.17
50349;BME280;36250;48.740;22.174;2023-11-22T09:34:31;100913.56;;;7.33;57.08
50349;BME280;36250;48.740;22.174;2023-11-22T09:36:56;100907.06;;;7.41;57.68
50349;BME280;36250;48.740;22.174;2023-11-22T09:39:22;100902.06;;;7.38;57.38
50349;BME280;36250;48.740;22.174;2023-11-22T09:41:50;100909.28;;;7.63;57.55
50349;BME280;36250;48.740;22.174;2023-11-22T09:44:17;100911.41;;;7.55;56.84
50349;BME280;36250;48.740;22.174;2023-11-22T09:46:42;100904.31;;;7.54;56.83
50349;BME280;36250;48.740;22.174;2023-11-22T09:49:10;100910.16;;;7.57;57.17
50349;BME280;36250;48.740;22.174;2023-11-22T09:51:42;100912.44;;;7.54;56.68
50349;BME280;36250;48.740;22.174;2023-11-22T09:54:09;100908.56;;;7.87;56.61
50349;BME280;36250;48.740;22.174;2023-11-22T09:56:39;100910.28;;;7.75;55.57
50349;BME280;36250;48.740;22.174;2023-11-22T09:59:06;100922.34;;;7.86;55.93
50349;BME280;36250;48.740;22.174;2023-11-22T10:01:32;100922.88;;;8.01;55.62
50349;BME280;36250;48.740;22.174;2023-11-22T10:04:01;100923.16;;;7.86;56.42
50349;BME280;36250;48.740;22.174;2023-11-22T10:06:28;100918.63;;;8.18;55.97
50349;BME280;36250;48.740;22.174;2023-11-22T10:08:58;100916.06;;;7.92;55.26
50349;BME280;36250;48.740;22.174;2023-11-22T10:11:24;100911.03;;;7.95;56.19
50349;BME280;36250;48.740;22.174;2023-11-22T10:13:50;100911.81;;;8.03;55.40
50349;BME280;36250;48.740;22.174;2023-11-22T10:16:16;100912.53;;;8.29;54.76
50349;BME280;36250;48.740;22.174;2023-11-22T10:18:47;100919.66;;;8.17;55.20
50349;BME280;36250;48.740;22.174;2023-11-22T10:21:29;100919.28;;;7.69;55.29
50349;BME280;36250;48.740;22.174;2023-11-22T10:24:01;100925.72;;;7.75;55.90
50349;BME280;36250;48.740;22.174;2023-11-22T10:26:27;100917.44;;;7.57;56.11
50349;BME280;36250;48.740;22.174;2023-11-22T10:28:54;100939.94;;;7.51;56.01
50349;BME280;36250;48.740;22.174;2023-11-22T10:31:20;100936.69;;;7.22;56.57
50349;BME280;36250;48.740;22.174;2023-11-22T10:33:47;100937.91;;;7.26;56.22
50349;BME280;36250;48.740;22.174;2023-11-22T10:36:13;100948.78;;;7.13;56.07
50349;BME280;36250;48.740;22.174;2023-11-22T10:38:40;100944.63;;;6.91;56.62
50349;BME280;36250;48.740;22.174;2023-11-22T10:41:06;100948.34;;;7.16;56.60
50349;BME280;36250;48.740;22.174;2023-11-22T10:43:34;100947.72;;;6.95;56.60
50349;BME280;36250;48.740;22.174;2023-11-22T10:46:01;100942.94;;;6.84;56.88
50349;BME280;36250;48.740;22.174;2023-11-22T10:48:27;100941.69;;;6.93;57.61
50349;BME280;36250;48.740;22.174;2023-11-22T10:50:55;100938.34;;;6.58;57.72
50349;BME280;36250;48.740;22.174;2023-11-22T10:53:26;100940.00;;;6.59;57.95
50349;BME280;36250;48.740;22.174;2023-11-22T10:55:59;100942.50;;;6.80;56.84
50349;BME280;36250;48.740;22.174;2023-11-22T10:58:27;100953.78;;;6.77;57.33
50349;BME280;36250;48.740;22.174;2023-11-22T11:00:53;100947.28;;;6.52;57.60
50349;BME280;36250;48.740;22.174;2023-11-22T11:03:21;100967.41;;;6.36;57.51
50349;BME280;36250;48.740;22.174;2023-11-22T11:05:55;100964.09;;;6.41;58.11
50349;BME280;36250;48.740;22.174;2023-11-22T11:08:25;100967.00;;;6.33;57.77
50349;BME280;36250;48.740;22.174;2023-11-22T11:10:53;100978.78;;;6.06;58.03
50349;BME280;36250;48.740;22.174;2023-11-22T11:13:19;100985.94;;;5.85;58.43
50349;BME280;36250;48.740;22.174;2023-11-22T11:15:45;100981.31;;;6.20;58.82
50349;BME280;36250;48.740;22.174;2023-11-22T11:18:14;100955.50;;;6.11;58.38
50349;BME280;36250;48.740;22.174;2023-11-22T11:20:51;100971.13;;;6.16;58.18
50349;BME280;36250;48.740;22.174;2023-11-22T11:23:27;100999.00;;;6.23;57.74
50349;BME280;36250;48.740;22.174;2023-11-22T11:25:58;100969.56;;;5.93;57.48
50349;BME280;36250;48.740;22.174;2023-11-22T11:28:25;100984.09;;;5.92;58.98
50349;BME280;36250;48.740;22.174;2023-11-22T11:30:54;100988.97;;;6.10;58.58
50349;BME280;36250;48.740;22.174;2023-11-22T11:33:27;100988.91;;;5.97;58.50
50349;BME280;36250;48.740;22.174;2023-11-22T11:35:52;100993.78;;;5.80;58.79
50349;BME280;36250;48.740;22.174;2023-11-22T11:38:21;100988.63;;;5.51;58.89
50349;BME280;36250;48.740;22.174;2023-11-22T11:40:52;101010.56;;;5.42;59.32
50349;BME280;36250;48.740;22.174;2023-11-22T11:43:47;101011.91;;;5.52;60.26
50349;BME280;36250;48.740;22.174;2023-11-22T11:46:16;101022.97;;;5.91;59.34
50349;BME280;36250;48.740;22.174;2023-11-22T11:48:50;101026.78;;;5.42;59.15
50349;BME280;36250;48.740;22.174;2023-11-22T11:51:26;101025.66;;;5.57;59.03
50349;BME280;36250;48.740;22.174;2023-11-22T11:53:53;101018.09;;;5.46;59.30
50349;BME280;36250;48.740;22.174;2023-11-22T11:56:19;101030.72;;;5.73;59.12
50349;BME280;36250;48.740;22.174;2023-11-22T11:58:46;101031.03;;;5.85;58.89
50349;BME280;36250;48.740;22.174;2023-11-22T12:01:16;101040.06;;;5.43;59.09
50349;BME280;36250;48.740;22.174;2023-11-22T12:03:42;101036.00;;;5.54;59.23
50349;BME280;36250;48.740;22.174;2023-11-22T12:06:09;101031.81;;;5.51;59.67
50349;BME280;36250;48.740;22.174;2023-11-22T12:08:34;101065.78;;;5.39;58.52
50349;BME280;36250;48.740;22.174;2023-11-22T12:11:02;101066.53;;;5.54;58.48
50349;BME280;36250;48.740;22.174;2023-11-22T12:13:29;101065.97;;;5.65;58.96
50349;BME280;36250;48.740;22.174;2023-11-22T12:15:55;101068.53;;;6.42;56.64
50349;BME280;36250;48.740;22.174;2023-11-22T12:18:22;101063.72;;;7.44;53.42
50349;BME280;36250;48.740;22.174;2023-11-22T12:20:57;101048.38;;;8.15;51.16
50349;BME280;36250;48.740;22.174;2023-11-22T12:23:24;101074.31;;;8.62;50.16
50349;BME280;36250;48.740;22.174;2023-11-22T12:25:55;101074.94;;;7.93;49.85
50349;BME280;36250;48.740;22.174;2023-11-22T12:28:27;101072.44;;;7.91;50.87
50349;BME280;36250;48.740;22.174;2023-11-22T12:30:53;101089.97;;;8.59;49.78
50349;BME280;36250;48.740;22.174;2023-11-22T12:33:19;101088.22;;;8.27;48.59
50349;BME280;36250;48.740;22.174;2023-11-22T12:35:45;101082.78;;;8.27;49.10
50349;BME280;36250;48.740;22.174;2023-11-22T12:38:11;101077.06;;;8.55;48.35
50349;BME280;36250;48.740;22.174;2023-11-22T12:40:37;101071.97;;;9.03;47.83
50349;BME280;36250;48.740;22.174;2023-11-22T12:43:03;101091.09;;;8.90;48.28
50349;BME280;36250;48.740;22.174;2023-11-22T12:45:30;101084.88;;;8.19;49.69
50349;BME280;36250;48.740;22.174;2023-11-22T12:47:56;101088.84;;;8.74;48.64